createdAt,value
2022-09-28T00:01:26.606Z,8.90
2022-09-28T00:03:59.965Z,13.25
2022-09-28T00:06:29.908Z,13.68
2022-09-28T00:08:57.978Z,9.98
2022-09-28T00:11:28.385Z,9.50
2022-09-28T00:13:58.018Z,13.45
2022-09-28T00:16:28.060Z,12.93
2022-09-28T00:18:55.790Z,12.02
2022-09-28T00:21:27.380Z,12.18
2022-09-28T00:24:15.320Z,13.43
2022-09-28T00:26:45.588Z,13.30
2022-09-28T00:29:32.791Z,14.15
2022-09-28T00:32:10.468Z,12.10
2022-09-28T00:34:45.971Z,13.25
2022-09-28T00:37:15.319Z,11.02
2022-09-28T00:39:43.538Z,12.50
2022-09-28T00:42:17.119Z,13.20
2022-09-28T00:44:57.277Z,13.43
2022-09-28T00:47:42.099Z,10.52
2022-09-28T00:50:27.602Z,10.98
2022-09-28T00:52:57.497Z,10.40
2022-09-28T00:55:38.468Z,10.60
2022-09-28T00:58:09.098Z,13.23
2022-09-28T01:00:36.667Z,9.50
2022-09-28T01:03:04.497Z,11.77
2022-09-28T01:05:33.389Z,9.90
2022-09-28T01:08:02.459Z,8.93
2022-09-28T01:10:31.609Z,10.00
2022-09-28T01:12:59.523Z,11.00
2022-09-28T01:15:29.479Z,13.80
2022-09-28T01:18:05.198Z,10.45
2022-09-28T01:21:22.009Z,13.25
2022-09-28T01:24:12.278Z,10.75
2022-09-28T01:26:58.080Z,11.82
2022-09-28T01:29:48.068Z,15.95
2022-09-28T01:32:36.708Z,12.68
2022-09-28T01:35:25.509Z,14.80
2022-09-28T01:37:58.229Z,15.73
2022-09-28T01:40:27.753Z,18.53
2022-09-28T01:43:00.340Z,17.40
2022-09-28T01:45:33.403Z,14.63
2022-09-28T01:48:05.208Z,16.17
2022-09-28T01:50:38.221Z,17.50
2022-09-28T01:53:23.468Z,17.42
2022-09-28T01:55:58.039Z,15.95
2022-09-28T01:58:44.628Z,17.92
2022-09-28T02:01:36.409Z,18.20
2022-09-28T02:04:19.060Z,19.92
2022-09-28T02:07:01.524Z,18.17
2022-09-28T02:09:49.590Z,12.65
2022-09-28T02:12:40.799Z,20.52
2022-09-28T02:15:19.468Z,13.85
2022-09-28T02:17:47.228Z,16.65
2022-09-28T02:20:17.428Z,15.40
2022-09-28T02:22:50.621Z,15.98
2022-09-28T02:25:33.868Z,18.42
2022-09-28T02:28:04.488Z,14.68
2022-09-28T02:30:33.248Z,15.82
2022-09-28T02:33:12.481Z,18.40
2022-09-28T02:35:42.598Z,16.60
2022-09-28T02:38:15.259Z,14.23
2022-09-28T02:40:50.553Z,16.83
2022-09-28T02:43:33.218Z,21.23
2022-09-28T02:46:21.908Z,15.05
2022-09-28T02:49:21.420Z,15.45
2022-09-28T02:52:15.418Z,20.73
2022-09-28T02:55:09.961Z,13.23
2022-09-28T02:57:57.948Z,15.18
2022-09-28T03:00:25.949Z,18.63
2022-09-28T03:03:05.838Z,16.13
2022-09-28T03:05:46.908Z,15.82
2022-09-28T03:08:49.988Z,19.65
2022-09-28T03:11:27.209Z,17.27
2022-09-28T03:13:55.941Z,16.55
2022-09-28T03:16:32.120Z,17.55
2022-09-28T03:18:59.551Z,12.10
2022-09-28T03:21:26.779Z,10.80
2022-09-28T03:23:54.046Z,15.10
2022-09-28T03:26:21.258Z,17.50
2022-09-28T03:28:48.528Z,13.57
2022-09-28T03:31:23.205Z,19.23
2022-09-28T03:33:51.718Z,13.50
2022-09-28T03:36:18.938Z,12.63
2022-09-28T03:38:46.280Z,11.75
2022-09-28T03:41:13.879Z,16.00
2022-09-28T03:43:43.180Z,14.75
2022-09-28T03:46:12.956Z,8.73
2022-09-28T03:48:45.709Z,15.63
2022-09-28T03:51:13.478Z,13.85
2022-09-28T03:53:40.838Z,19.10
2022-09-28T03:56:12.318Z,13.52
2022-09-28T03:58:40.328Z,18.48
2022-09-28T04:01:16.759Z,13.77
2022-09-28T04:03:46.363Z,13.50
2022-09-28T04:06:14.460Z,10.88
2022-09-28T04:08:43.183Z,9.40
2022-09-28T04:11:10.701Z,13.55
2022-09-28T04:13:38.080Z,15.25
2022-09-28T04:16:08.010Z,12.45
2022-09-28T04:18:35.899Z,10.05
2022-09-28T04:21:32.142Z,16.83
2022-09-28T04:24:11.088Z,12.90
2022-09-28T04:26:38.368Z,13.65
2022-09-28T04:29:18.361Z,11.18
2022-09-28T04:31:56.819Z,10.82
2022-09-28T04:34:44.149Z,12.27
2022-09-28T04:37:12.273Z,11.30
2022-09-28T04:39:43.932Z,13.05
2022-09-28T04:42:14.045Z,10.02
2022-09-28T04:44:41.193Z,11.93
2022-09-28T04:47:09.872Z,16.45
2022-09-28T04:49:59.912Z,10.75
2022-09-28T04:52:32.032Z,10.95
2022-09-28T04:54:59.313Z,10.00
2022-09-28T04:57:26.916Z,9.43
2022-09-28T04:59:55.062Z,9.90
2022-09-28T05:02:22.277Z,10.70
2022-09-28T05:05:08.693Z,13.02
2022-09-28T05:07:59.283Z,9.55
2022-09-28T05:10:26.532Z,10.35
2022-09-28T05:12:53.663Z,12.43
2022-09-28T05:15:20.915Z,12.93
2022-09-28T05:17:49.091Z,11.95
2022-09-28T05:20:42.197Z,13.68
2022-09-28T05:23:11.623Z,13.32
2022-09-28T05:25:40.173Z,12.35
2022-09-28T05:28:24.156Z,11.90
2022-09-28T05:31:09.833Z,12.98
2022-09-28T05:33:51.573Z,14.43
2022-09-28T05:36:18.793Z,13.65
2022-09-28T05:38:46.683Z,13.23
2022-09-28T05:41:14.453Z,15.40
2022-09-28T05:43:44.230Z,16.73
2022-09-28T05:46:11.942Z,14.77
2022-09-28T05:48:41.585Z,19.55
2022-09-28T05:51:10.252Z,12.25
2022-09-28T05:53:37.594Z,16.35
2022-09-28T05:56:05.583Z,12.50
2022-09-28T05:58:34.214Z,15.40
2022-09-28T06:01:01.530Z,13.30
2022-09-28T06:03:30.302Z,18.08
2022-09-28T06:06:00.226Z,15.45
2022-09-28T06:08:27.452Z,17.35
2022-09-28T06:11:09.324Z,14.27
2022-09-28T06:13:36.963Z,17.88
2022-09-28T06:16:05.106Z,18.58
2022-09-28T06:18:32.343Z,14.43
2022-09-28T06:21:21.337Z,15.90
2022-09-28T06:23:49.506Z,17.92
2022-09-28T06:26:18.952Z,13.98
2022-09-28T06:28:46.752Z,13.68
2022-09-28T06:31:14.170Z,15.10
2022-09-28T06:33:48.174Z,19.33
2022-09-28T06:36:16.165Z,16.38
2022-09-28T06:38:43.365Z,21.35
2022-09-28T06:41:11.823Z,12.00
2022-09-28T06:43:40.944Z,18.38
2022-09-28T06:46:14.572Z,21.17
2022-09-28T06:48:50.833Z,22.73
2022-09-28T06:51:23.633Z,19.67
2022-09-28T06:53:57.086Z,16.02
2022-09-28T06:56:41.098Z,17.77
2022-09-28T06:59:08.426Z,17.85
2022-09-28T07:01:37.251Z,20.13
2022-09-28T07:04:09.332Z,14.43
2022-09-28T07:06:55.514Z,17.55
2022-09-28T07:09:46.438Z,21.25
2022-09-28T07:12:42.614Z,16.77
2022-09-28T07:15:34.353Z,16.88
2022-09-28T07:18:04.280Z,18.75
2022-09-28T07:20:41.855Z,20.17
2022-09-28T07:23:19.331Z,18.42
2022-09-28T07:26:09.058Z,15.95
2022-09-28T07:28:56.084Z,18.58
2022-09-28T07:31:33.835Z,16.92
2022-09-28T07:34:23.203Z,18.30
2022-09-28T07:37:03.333Z,19.73
2022-09-28T07:39:30.634Z,16.63
2022-09-28T07:42:02.538Z,22.05
2022-09-28T07:44:32.205Z,17.23
2022-09-28T07:46:59.404Z,17.30
2022-09-28T07:49:45.033Z,19.10
2022-09-28T07:52:26.505Z,16.65
2022-09-28T07:55:08.383Z,19.73
2022-09-28T07:58:02.173Z,17.33
2022-09-28T08:01:10.682Z,20.42
2022-09-28T08:03:40.193Z,17.30
2022-09-28T08:06:11.274Z,14.30
2022-09-28T08:08:43.981Z,17.27
2022-09-28T08:11:15.673Z,23.98
2022-09-28T08:14:05.893Z,19.83
2022-09-28T08:17:06.844Z,21.52
2022-09-28T08:20:08.714Z,18.90
2022-09-28T08:22:37.333Z,18.73
2022-09-28T08:25:05.175Z,16.65
2022-09-28T08:27:33.193Z,14.27
2022-09-28T08:30:00.386Z,30.92
2022-09-28T08:32:56.943Z,18.23
2022-09-28T08:35:27.025Z,18.10
2022-09-28T08:38:15.415Z,26.02
2022-09-28T08:41:22.753Z,15.35
2022-09-28T08:44:24.275Z,16.98
2022-09-28T08:49:48.286Z,18.10
2022-09-28T08:52:36.122Z,16.00
2022-09-28T08:55:43.465Z,15.23
2022-09-28T08:58:28.504Z,10.77
2022-09-28T09:00:55.787Z,14.65
2022-09-28T09:03:33.022Z,15.77
2022-09-28T09:07:00.652Z,19.20
2022-09-28T09:10:00.455Z,12.82
2022-09-28T09:12:27.623Z,14.27
2022-09-28T09:15:33.453Z,13.45
2022-09-28T09:18:22.503Z,13.30
2022-09-28T09:21:16.964Z,10.32
2022-09-28T09:24:01.667Z,13.13
2022-09-28T09:28:58.432Z,10.80
2022-09-28T09:32:22.237Z,11.00
2022-09-28T09:35:09.112Z,10.68
2022-09-28T09:38:12.162Z,11.25
2022-09-28T09:41:32.533Z,12.55
2022-09-28T09:44:48.992Z,15.68
2022-09-28T09:47:43.165Z,13.07
2022-09-28T09:50:35.483Z,11.27
2022-09-28T09:53:07.002Z,14.15
2022-09-28T09:55:50.683Z,12.55
2022-09-28T09:58:44.815Z,16.23
2022-09-28T10:01:34.876Z,12.00
2022-09-28T10:04:29.691Z,14.50
2022-09-28T10:07:05.874Z,15.55
2022-09-28T10:09:43.072Z,12.07
2022-09-28T10:15:08.222Z,11.88
2022-09-28T10:17:47.923Z,13.88
2022-09-28T10:20:37.333Z,13.10
2022-09-28T10:23:28.272Z,14.20
2022-09-28T10:26:29.033Z,7.93
2022-09-28T10:29:06.369Z,14.05
2022-09-28T10:31:35.373Z,10.00
2022-09-28T10:34:05.064Z,14.52
2022-09-28T10:36:38.854Z,15.30
2022-09-28T10:39:07.183Z,13.07
2022-09-28T10:41:50.043Z,12.20
2022-09-28T10:44:22.457Z,13.45
2022-09-28T10:47:04.265Z,12.80
2022-09-28T10:49:46.967Z,12.35
2022-09-28T10:52:33.674Z,14.95
2022-09-28T10:55:01.638Z,12.77
2022-09-28T10:57:34.834Z,15.70
2022-09-28T11:00:07.524Z,14.02
2022-09-28T11:02:50.716Z,12.43
2022-09-28T11:05:24.664Z,11.75
2022-09-28T11:07:57.165Z,10.18
2022-09-28T11:10:33.049Z,18.63
2022-09-28T11:13:11.155Z,9.88
2022-09-28T11:15:43.974Z,12.40
2022-09-28T11:18:32.533Z,15.52
2022-09-28T11:21:32.317Z,11.95
2022-09-28T11:24:19.361Z,12.50
2022-09-28T11:26:50.974Z,15.82
2022-09-28T11:29:51.504Z,15.70
2022-09-28T11:32:42.053Z,11.68
2022-09-28T11:35:44.035Z,9.95
2022-09-28T11:38:47.594Z,14.10
2022-09-28T11:41:45.263Z,11.07
2022-09-28T11:44:18.419Z,11.07
2022-09-28T11:47:03.993Z,9.98
2022-09-28T11:49:48.234Z,11.98
2022-09-28T11:52:24.584Z,9.65
2022-09-28T11:54:57.386Z,12.13
2022-09-28T11:57:30.624Z,10.63
2022-09-28T12:00:10.814Z,14.80
2022-09-28T12:02:47.448Z,12.00
2022-09-28T12:05:25.184Z,13.85
2022-09-28T12:08:00.324Z,13.23
2022-09-28T12:10:55.685Z,14.65
2022-09-28T12:13:42.365Z,12.30
2022-09-28T12:19:43.404Z,10.10
2022-09-28T12:25:13.557Z,7.03
2022-09-28T12:27:50.734Z,10.90
2022-09-28T12:30:22.561Z,6.22
2022-09-28T12:32:58.674Z,12.10
2022-09-28T12:36:00.604Z,12.60
2022-09-28T12:38:43.328Z,8.02
2022-09-28T12:43:55.006Z,10.98
2022-09-28T12:46:28.706Z,8.27
2022-09-28T12:52:57.017Z,8.35
2022-09-28T12:55:56.561Z,4.50
2022-09-28T12:58:42.164Z,9.75
2022-09-28T13:01:28.192Z,8.02
2022-09-28T13:04:17.625Z,7.72
2022-09-28T13:10:01.538Z,10.50
2022-09-28T13:13:00.583Z,4.90
2022-09-28T13:15:41.237Z,22.83
2022-09-28T13:18:36.324Z,10.77
2022-09-28T13:21:18.905Z,6.80
2022-09-28T13:23:48.134Z,11.05
2022-09-28T13:26:40.505Z,6.07
2022-09-28T13:29:14.338Z,7.95
2022-09-28T13:31:49.054Z,7.10
2022-09-28T13:34:22.419Z,7.45
2022-09-28T13:37:18.274Z,9.68
2022-09-28T13:39:45.496Z,11.13
2022-09-28T13:42:46.374Z,9.10
2022-09-28T13:45:59.920Z,11.88
2022-09-28T13:48:58.314Z,7.47
2022-09-28T13:51:41.985Z,6.47
2022-09-28T13:55:23.904Z,6.53
2022-09-28T13:58:50.464Z,6.80
2022-09-28T14:02:07.856Z,7.10
2022-09-28T14:05:06.324Z,5.18
2022-09-28T14:07:36.387Z,4.55
2022-09-28T14:10:21.065Z,5.60
2022-09-28T14:12:53.304Z,6.07
2022-09-28T14:15:30.011Z,6.68
2022-09-28T14:18:24.414Z,4.95
2022-09-28T14:21:30.139Z,5.72
2022-09-28T14:24:03.142Z,7.53
2022-09-28T14:26:53.905Z,6.75
2022-09-28T14:29:31.594Z,6.45
2022-09-28T14:32:23.315Z,5.75
2022-09-28T14:35:01.044Z,7.13
2022-09-28T14:37:50.748Z,6.80
2022-09-28T14:40:44.710Z,6.53
2022-09-28T14:43:26.149Z,5.68
2022-09-28T14:46:17.688Z,5.05
2022-09-28T14:48:58.304Z,6.78
2022-09-28T14:51:30.354Z,7.05
2022-09-28T14:54:03.346Z,11.52
2022-09-28T14:56:38.705Z,6.13
2022-09-28T14:59:07.261Z,8.07
2022-09-28T15:01:36.497Z,6.03
2022-09-28T15:04:08.925Z,5.90
2022-09-28T15:06:47.447Z,4.63
2022-09-28T15:09:35.304Z,6.25
2022-09-28T15:12:04.364Z,5.65
2022-09-28T15:14:35.405Z,8.85
2022-09-28T15:17:10.845Z,8.02
2022-09-28T15:19:46.723Z,10.13
2022-09-28T15:22:17.703Z,6.60
2022-09-28T15:24:58.691Z,7.53
2022-09-28T15:27:39.005Z,10.35
2022-09-28T15:30:39.194Z,7.47
2022-09-28T15:33:24.894Z,11.75
2022-09-28T15:36:04.039Z,7.95
2022-09-28T15:38:33.442Z,11.93
2022-09-28T15:41:05.602Z,11.07
2022-09-28T15:43:34.659Z,11.32
2022-09-28T15:46:21.155Z,13.52
2022-09-28T15:48:56.260Z,11.77
2022-09-28T15:51:28.508Z,9.48
2022-09-28T15:54:09.541Z,11.80
2022-09-28T15:57:03.324Z,14.63
2022-09-28T15:59:39.574Z,19.48
2022-09-28T16:02:22.853Z,9.93
2022-09-28T16:04:51.900Z,13.90
2022-09-28T16:07:19.074Z,14.68
2022-09-28T16:10:02.261Z,11.98
2022-09-28T16:12:38.514Z,14.70
2022-09-28T16:15:21.505Z,13.57
2022-09-28T16:18:00.744Z,12.90
2022-09-28T16:20:37.545Z,17.20
2022-09-28T16:23:16.173Z,13.35
2022-09-28T16:25:52.262Z,12.85
2022-09-28T16:28:37.644Z,11.07
2022-09-28T16:31:11.057Z,12.50
2022-09-28T16:34:11.381Z,9.93
2022-09-28T16:36:45.687Z,12.85
2022-09-28T16:39:14.601Z,11.32
2022-09-28T16:41:44.383Z,9.77
2022-09-28T16:44:23.485Z,11.13
2022-09-28T16:46:54.124Z,13.93
2022-09-28T16:49:23.885Z,8.18
2022-09-28T16:51:51.414Z,11.45
2022-09-28T16:54:39.823Z,12.27
2022-09-28T16:57:09.854Z,23.60
2022-09-28T16:59:40.384Z,34.65
2022-09-28T17:02:49.431Z,18.25
2022-09-28T17:05:21.126Z,13.73
2022-09-28T17:08:03.144Z,12.65
2022-09-28T17:10:56.108Z,8.55
2022-09-28T17:13:34.010Z,8.55
2022-09-28T17:16:09.076Z,9.02
2022-09-28T17:18:40.783Z,8.68
2022-09-28T17:21:16.043Z,7.60
2022-09-28T17:23:44.626Z,6.90
2022-09-28T17:26:20.334Z,7.25
2022-09-28T17:28:47.964Z,6.82
2022-09-28T17:31:17.110Z,5.93
2022-09-28T17:33:45.444Z,3.78
2022-09-28T17:36:16.796Z,4.25
2022-09-28T17:38:45.654Z,5.53
2022-09-28T17:41:19.978Z,5.43
2022-09-28T17:43:48.101Z,6.80
2022-09-28T17:46:33.392Z,5.75
2022-09-28T17:49:03.295Z,6.32
2022-09-28T17:51:35.604Z,5.63
2022-09-28T17:54:03.096Z,4.00
2022-09-28T17:56:32.803Z,9.80
2022-09-28T17:59:03.335Z,5.60
2022-09-28T18:01:34.680Z,5.53
2022-09-28T18:04:05.194Z,4.30
2022-09-28T18:06:34.021Z,5.00
2022-09-28T18:09:03.435Z,6.85
2022-09-28T18:11:32.239Z,7.47
2022-09-28T18:13:59.704Z,7.85
2022-09-28T18:16:29.121Z,5.25
2022-09-28T18:18:56.821Z,4.85
2022-09-28T18:21:24.293Z,4.80
2022-09-28T18:23:51.804Z,7.45
2022-09-28T18:26:19.840Z,6.60
2022-09-28T18:28:47.377Z,7.03
2022-09-28T18:31:16.222Z,6.47
2022-09-28T18:33:58.382Z,9.98
2022-09-28T18:36:34.033Z,9.65
2022-09-28T18:39:01.794Z,8.43
2022-09-28T18:41:29.564Z,9.32
2022-09-28T18:44:00.993Z,11.18
2022-09-28T18:46:30.062Z,13.75
2022-09-28T18:48:57.565Z,7.35
2022-09-28T18:51:25.056Z,15.65
2022-09-28T18:53:52.634Z,9.38
2022-09-28T18:56:21.154Z,7.53
2022-09-28T18:58:51.945Z,9.60
2022-09-28T19:01:30.825Z,10.32
2022-09-28T19:04:00.843Z,9.48
2022-09-28T19:06:28.647Z,8.23
2022-09-28T19:08:56.366Z,7.03
2022-09-28T19:11:24.892Z,11.95
2022-09-28T19:13:54.595Z,9.05
2022-09-28T19:16:28.873Z,6.93
2022-09-28T19:18:58.042Z,7.25
2022-09-28T19:21:27.544Z,7.82
2022-09-28T19:23:55.793Z,8.57
2022-09-28T19:26:28.154Z,7.95
2022-09-28T19:28:59.342Z,8.48
2022-09-28T19:31:27.737Z,7.72
2022-09-28T19:33:55.130Z,7.63
2022-09-28T19:36:24.857Z,7.93
2022-09-28T19:38:57.175Z,10.55
2022-09-28T19:41:46.154Z,12.32
2022-09-28T19:44:24.930Z,10.40
2022-09-28T19:47:09.025Z,7.40
2022-09-28T19:49:38.863Z,9.93
2022-09-28T19:52:16.185Z,12.18
2022-09-28T19:54:55.944Z,9.38
2022-09-28T19:57:25.174Z,8.50
2022-09-28T19:59:55.757Z,9.23
2022-09-28T20:02:24.297Z,9.75
2022-09-28T20:04:51.824Z,11.48
2022-09-28T20:07:19.281Z,9.52
2022-09-28T20:09:46.644Z,9.93
2022-09-28T20:12:14.184Z,10.25
2022-09-28T20:14:41.566Z,10.05
2022-09-28T20:17:10.265Z,8.10
2022-09-28T20:19:37.671Z,8.10
2022-09-28T20:22:05.278Z,10.25
2022-09-28T20:24:33.164Z,12.43
2022-09-28T20:27:01.752Z,7.80
2022-09-28T20:29:31.817Z,12.52
2022-09-28T20:31:59.544Z,8.70
2022-09-28T20:34:27.035Z,8.50
2022-09-28T20:36:54.475Z,10.00
2022-09-28T20:39:21.804Z,10.55
2022-09-28T20:41:49.510Z,10.60
2022-09-28T20:44:17.063Z,10.05
2022-09-28T20:46:44.757Z,6.30
2022-09-28T20:49:12.264Z,10.75
2022-09-28T20:51:39.695Z,11.35
2022-09-28T20:54:07.164Z,10.57
2022-09-28T20:56:39.086Z,9.82
2022-09-28T20:59:12.254Z,10.25
2022-09-28T21:01:40.423Z,7.55
2022-09-28T21:04:09.446Z,11.23
2022-09-28T21:06:39.745Z,10.75
2022-09-28T21:09:09.496Z,6.75
2022-09-28T21:11:37.825Z,7.25
2022-09-28T21:14:06.966Z,7.97
2022-09-28T21:16:35.410Z,9.25
2022-09-28T21:19:03.551Z,8.18
2022-09-28T21:21:31.414Z,9.68
2022-09-28T21:23:59.103Z,9.48
2022-09-28T21:26:28.914Z,10.90
2022-09-28T21:29:01.618Z,7.97
2022-09-28T21:31:41.670Z,8.25
2022-09-28T21:34:21.147Z,11.23
2022-09-28T21:36:51.517Z,10.60
2022-09-28T21:39:19.314Z,8.45
2022-09-28T21:41:46.870Z,8.73
2022-09-28T21:44:14.466Z,7.55
2022-09-28T21:46:42.299Z,9.77
2022-09-28T21:49:12.853Z,9.63
2022-09-28T21:51:40.305Z,7.05
2022-09-28T21:54:08.425Z,8.23
2022-09-28T21:56:35.915Z,9.18
2022-09-28T21:59:03.386Z,9.77
2022-09-28T22:01:31.935Z,8.77
2022-09-28T22:03:59.725Z,6.95
2022-09-28T22:06:30.847Z,8.30
2022-09-28T22:08:58.596Z,8.40
2022-09-28T22:11:28.348Z,6.28
2022-09-28T22:13:58.910Z,8.07
2022-09-28T22:16:29.659Z,9.15
2022-09-28T22:18:57.853Z,9.68
2022-09-28T22:21:28.319Z,12.23
2022-09-28T22:24:15.520Z,5.10
2022-09-28T22:26:42.671Z,9.30
2022-09-28T22:29:10.770Z,7.95
2022-09-28T22:31:40.110Z,7.68
2022-09-28T22:34:08.301Z,13.02
2022-09-28T22:36:35.846Z,6.28
2022-09-28T22:39:03.657Z,7.38
2022-09-28T22:41:32.221Z,6.82
2022-09-28T22:43:59.610Z,7.60
2022-09-28T22:46:28.798Z,9.07
2022-09-28T22:48:58.512Z,9.68
2022-09-28T22:51:29.982Z,9.18
2022-09-28T22:53:57.511Z,9.73
2022-09-28T22:56:24.921Z,9.80
2022-09-28T22:58:52.200Z,7.75
2022-09-28T23:01:24.977Z,10.52
2022-09-28T23:03:54.062Z,10.00
2022-09-28T23:06:24.151Z,7.63
2022-09-28T23:08:52.353Z,4.82
2022-09-28T23:11:19.612Z,7.50
2022-09-28T23:13:54.831Z,7.90
2022-09-28T23:16:23.733Z,6.35
2022-09-28T23:18:51.281Z,6.50
2022-09-28T23:21:21.001Z,9.07
2022-09-28T23:23:53.773Z,7.25
2022-09-28T23:26:24.649Z,8.73
2022-09-28T23:28:53.032Z,7.07
2022-09-28T23:31:28.897Z,8.40
2022-09-28T23:34:01.950Z,9.63
2022-09-28T23:36:29.441Z,7.18
2022-09-28T23:38:56.841Z,9.23
2022-09-28T23:41:24.238Z,6.18
2022-09-28T23:43:51.591Z,11.63
2022-09-28T23:46:21.018Z,7.93
2022-09-28T23:48:49.170Z,6.68
2022-09-28T23:51:16.442Z,6.38
2022-09-28T23:53:43.754Z,9.48
2022-09-28T23:56:11.220Z,11.00
2022-09-28T23:58:38.450Z,8.30
